• Join FlightAware (Why Join?)
  • Login
  • US Flag 
10:06AM EDT


 

Airport Tracker/Info


-or-


 

Live Flight TrackerFlight Track Log ✈ UAL6012 ✈ 19-Sep-2013 ✈ KMSP - KIAD

Flight Track Log - Related Links

Times and Time Zones

All times are in EDT time to prevent confusion due to time zone crossing. See the UAL6012 flight status page for this flight to view local times or setup timezone preferences in your user account.

Time Position Orientation Groundspeed Altitude Reporting Facility
EDT Latitude Longitude Course Direction KTS MPH feet Rate Location/Type
01:41AM 44.9333 -93.2333 130° Southeast 185 213 3,300  Level Minneapolis TRACON
01:43AM 44.7549 -92.7682 113° Southeast  Level Estimated
01:43AM 44.8635 -92.9851 118° Southeast  Level Estimated
01:44AM 44.7122 -92.6175 125° Southeast  Level Estimated
01:44AM 44.9153 -92.9761 118° Southeast 294 338 11,400  Level Minneapolis Center
01:45AM 44.6692 -92.4670 117° Southeast  Level Estimated
01:45AM 44.8664 -92.8908 129° Southeast 343 395 12,400  Level Minneapolis Center
01:46AM 44.6263 -92.3175 130° Southeast  Level Estimated
01:46AM 44.8033 -92.7806 129° Southeast 357 411 14,200  Level Minneapolis Center
01:48AM 44.7340 -92.5384 113° Southeast  Level Estimated
01:49AM 44.5967 -92.3956 113° Southeast 388 447 19,200  Level Minneapolis Center
01:51AM 44.5172 -92.1684 113° Southeast  Level FlightAware Approximate
01:55AM 44.3017 -91.5400 115° Southeast 413 475 27,000  Level Minneapolis Center
01:57AM 44.2089 -91.2603 115° Southeast 415 478 29,400 1,080 Climbing Minneapolis Center
01:58AM 44.1804 -91.1576 115° Southeast  Level FlightAware Approximate
01:59AM 44.1324 -91.0137 115° Southeast  Level FlightAware Approximate
02:00AM 44.0844 -90.8697 115° Southeast  Level FlightAware Approximate
02:00AM 44.1311 -91.0099 115° Southeast  Level FlightAware Approximate
02:01AM 44.0158 -90.6864 116° Southeast 414 476 33,600  Level Chicago Center
02:02AM 43.9664 -90.5369 115° Southeast 421 484 34,600 660 Climbing Chicago Center
02:03AM 43.9153 -90.3903 116° Southeast 423 487 35,000 120 Climbing Chicago Center
02:05AM 43.8086 -90.0792 115° Southeast 450 518 35,000  Level Chicago Center
02:06AM 43.7536 -89.9208 116° Southeast 457 526 35,000  Level Chicago Center
02:07AM 43.7950 -90.0146 116° Southeast  Level FlightAware Approximate
02:07AM 43.6969 -89.7603 116° Southeast 463 533 35,000  Level Chicago Center
02:09AM 43.5861 -89.4397 115° Southeast 464 534 35,000  Level Chicago Center
02:10AM 43.5275 -89.2792 116° Southeast 470 541 35,000  Level Chicago Center
02:11AM 43.5058 -89.2156 116° Southeast  Level FlightAware Approximate
02:11AM 43.4697 -89.1175 116° Southeast 473 544 35,000  Level Chicago Center
02:12AM 43.4117 -88.9575 116° Southeast 472 543 35,000 540 Level Chicago Center
02:14AM 43.2872 -88.6206 117° Southeast 457 526 36,900 660 Climbing Minneapolis Center
02:15AM 43.2422 -88.4986 117° Southeast 455 524 37,000  Climbing Chicago Center
02:17AM 43.1161 -88.1517 116° Southeast 469 540 37,000  Level Chicago Center
02:18AM 43.1493 -88.2420 116° Southeast  Level FlightAware Approximate
02:18AM 43.0575 -87.9936 117° Southeast 469 540 37,000  Level Chicago Center
02:19AM 43.0000 -87.8394 117° Southeast 461 531 37,000  Level Chicago Center
02:20AM 42.9431 -87.6872 117° Southeast 453 521 37,000  Level Chicago Center
02:21AM 42.8847 -87.5350 118° Southeast 453 521 37,000  Level Chicago Center
02:23AM 42.7988 -87.3231 119° Southeast  Level FlightAware Approximate
02:24AM 42.7333 -87.1392 119° Southeast 491 565 37,000  Level Cleveland Center
02:25AM 42.6731 -86.9819 117° Southeast 473 544 37,000  Level Cleveland Center
02:26AM 42.6139 -86.8325 118° Southeast 471 542 37,000  Level Cleveland Center
02:27AM 42.5547 -86.6772 117° Southeast 467 537 37,000  Level Cleveland Center
02:28AM 42.4933 -86.5233 118° Southeast 468 539 37,000  Level Cleveland Center
02:29AM 42.4322 -86.3675 118° Southeast 473 544 37,000  Level Cleveland Center
02:30AM 42.3703 -86.2108 118° Southeast 476 548 37,000  Level Cleveland Center
02:31AM 42.2933 -86.0533 123° Southeast 481 554 37,000  Level Cleveland Center
02:32AM 42.1508 -85.8603 135° Southeast 481 554 37,000  Level Chicago Center
02:33AM 42.0853 -85.7042 119° Southeast 482 555 37,000  Level Chicago Center
02:34AM 42.0242 -85.5467 118° Southeast 480 552 37,000  Level Chicago Center
02:35AM 41.9706 -85.4075 117° Southeast 469 540 37,000  Level Chicago Center
02:36AM 41.9097 -85.2514 118° Southeast 466 536 37,000  Level Chicago Center
02:37AM 41.8464 -85.0947 118° Southeast 470 541 37,000  Level Chicago Center
02:38AM 41.7844 -84.9394 118° Southeast 470 541 37,000  Level Chicago Center
02:39AM 41.7214 -84.7844 119° Southeast 472 543 37,000  Level Chicago Center
02:40AM 41.6594 -84.6317 118° Southeast 468 539 37,000  Level Chicago Center
02:41AM 41.5969 -84.4792 119° Southeast 467 537 37,000  Level Chicago Center
02:42AM 41.5353 -84.3289 119° Southeast 463 533 37,000  Level Chicago Center
02:43AM 41.4739 -84.1783 119° Southeast 462 532 37,000  Level Chicago Center
02:44AM 41.4308 -84.0797 120° Southeast 465 535 37,000  Level Cleveland Center
02:45AM 41.3686 -83.9283 119° Southeast 470 541 37,000  Level Cleveland Center
02:46AM 41.3050 -83.7772 119° Southeast 471 542 37,000  Level Cleveland Center
02:48AM 41.1769 -83.4714 119° Southeast 478 550 37,000  Level Cleveland Center
02:49AM 41.1131 -83.3197 119° Southeast 475 547 37,000  Level Cleveland Center
02:50AM 41.0469 -83.1639 119° Southeast 472 543 37,000  Level Cleveland Center
02:50AM 41.0044 -83.0647 120° Southeast 468 539 37,000  Level Cleveland Center
02:51AM 40.9394 -82.9161 120° Southeast 465 535 37,000  Level Cleveland Center
02:52AM 40.8764 -82.7686 119° Southeast 461 531 37,000  Level Cleveland Center
02:53AM 40.8122 -82.6214 120° Southeast 459 528 37,000  Level Cleveland Center
02:54AM 40.7486 -82.4758 120° Southeast 458 527 37,000  Level Cleveland Center
02:55AM 40.6836 -82.3269 120° Southeast 464 534 37,000  Level Cleveland Center
02:56AM 40.6189 -82.1797 120° Southeast 467 537 37,000  Level Indianapolis Center
02:57AM 40.5531 -82.0314 120° Southeast 467 537 37,000  Level Indianapolis Center
02:58AM 40.4858 -81.8811 120° Southeast 473 544 37,000  Level Indianapolis Center
02:59AM 40.4189 -81.7300 120° Southeast 476 548 37,000  Level Indianapolis Center
03:00AM 40.3517 -81.5803 120° Southeast 475 547 37,000  Level Indianapolis Center
03:01AM 40.2942 -81.4544 121° Southeast 478 550 37,000  Level Indianapolis Center
03:02AM 40.2261 -81.3031 120° Southeast 479 551 37,000  Level Indianapolis Center
03:03AM 40.1431 -81.1158 120° Southeast 483 556 37,000  Level Cleveland Center
03:04AM 40.0875 -80.9981 122° Southeast 485 558 37,000  Level Indianapolis Center
03:05AM 40.0169 -80.8458 121° Southeast 487 560 37,000  Level Indianapolis Center
03:06AM 39.9450 -80.6864 120° Southeast 479 551 37,000  Level Indianapolis Center
03:07AM 39.8744 -80.5383 122° Southeast 478 550 37,000  Level Indianapolis Center
03:08AM 39.8058 -80.3900 121° Southeast 477 549 37,000  Level Indianapolis Center
03:09AM 39.7369 -80.2431 121° Southeast 475 547 37,000  Level Indianapolis Center
03:10AM 39.6639 -80.0856 121° Southeast 474 545 37,000 -540 Level Cleveland Center
03:11AM 39.5978 -79.9439 121° Southeast 471 542 35,900 -1,980 Descending Cleveland Center
03:12AM 39.5461 -79.7867 113° Southeast 475 547 33,100 -2,640 Descending Cleveland Center
03:13AM 39.5161 -79.6236 103° East 472 543 30,600 -2,520 Descending Cleveland Center
03:14AM 39.4861 -79.4592 103° East 471 542 28,100 -2,640 Descending Cleveland Center
03:15AM 39.4564 -79.2914 103° East 475 547 25,400 -2,640 Descending Cleveland Center
03:16AM 39.4258 -79.1258 103° East 477 549 22,900 -2,520 Descending Cleveland Center
03:17AM 39.3969 -78.9678 103° East 449 517 20,400 -2,520 Descending Cleveland Center
03:18AM 39.3703 -78.8233 103° East 416 479 17,900 -2,460 Descending Cleveland Center
03:19AM 39.3456 -78.6842 103° East 401 461 15,500 -2,520 Descending Cleveland Center
03:20AM 39.3333 -78.6000 101° East 390 449 14,100 -2,640 Descending Potomac TRACON
03:21AM 39.3167 -78.5000 102° East 379 436 12,100 -2,100 Descending Potomac TRACON
03:22AM 39.3061 -78.3892 97° East 369 425 10,500 -1,140 Descending Washington Center
03:23AM 39.2839 -78.2650 103° East 363 418 9,900 -300 Descending Washington Center
03:24AM 39.2639 -78.1383 101° East 358 412 9,900  Level Washington Center
03:25AM 39.2414 -78.0142 103° East 358 412 9,900 -300 Level Washington Center
03:26AM 39.2247 -77.9092 102° East 333 383 9,300 -1,020 Descending Washington Center
03:27AM 39.2078 -77.8122 103° East 301 346 7,900 -1,680 Descending Washington Center
03:28AM 39.1906 -77.7153 103° East 282 325 6,000 -1,620 Descending Washington Center
03:29AM 39.1736 -77.6236 103° East 270 311 4,700 -1,320 Descending Washington Center
03:29AM 39.1667 -77.5500 97° East 253 291 3,700 -1,260 Descending Potomac TRACON
03:30AM 39.1333 -77.4667 117° Southeast 259 298 2,600 -600 Descending Potomac TRACON
03:31AM 39.0833 -77.4667 180° South 225 259 2,500 -600 Descending Potomac TRACON
03:32AM 39.0333 -77.4667 180° South 172 198 1,500 -840 Descending Potomac TRACON
03:33AM 39.0000 -77.4667 180° South 132 152 900 -600 Descending Potomac TRACON